createdAt,value
2022-12-26T00:00:12.117Z,10.64
2022-12-26T00:03:16.005Z,10.67
2022-12-26T00:06:21.925Z,10.57
2022-12-26T00:09:26.952Z,10.58
2022-12-26T00:12:30.644Z,10.48
2022-12-26T00:15:34.154Z,10.54
2022-12-26T00:18:37.864Z,10.31
2022-12-26T00:21:41.558Z,10.27
2022-12-26T00:24:46.595Z,10.30
2022-12-26T00:27:50.279Z,10.18
2022-12-26T00:30:53.717Z,10.03
2022-12-26T00:33:57.572Z,9.92
2022-12-26T00:37:01.047Z,9.92
2022-12-26T00:40:08.028Z,9.91
2022-12-26T00:43:11.661Z,9.68
2022-12-26T00:46:15.894Z,9.45
2022-12-26T00:49:19.436Z,9.40
2022-12-26T00:52:23.480Z,9.35
2022-12-26T00:55:28.440Z,9.29
2022-12-26T00:58:32.034Z,9.24
2022-12-26T01:01:35.720Z,9.28
2022-12-26T01:04:39.528Z,9.33
2022-12-26T01:08:20.460Z,9.12
2022-12-26T01:11:11.742Z,8.70
2022-12-26T01:14:17.791Z,8.84
2022-12-26T01:17:21.339Z,9.05
2022-12-26T01:20:24.991Z,9.15
2022-12-26T01:23:29.205Z,9.01
2022-12-26T01:26:34.131Z,9.30
2022-12-26T01:29:37.815Z,9.16
2022-12-26T01:32:41.397Z,8.97
2022-12-26T01:35:53.214Z,9.05
2022-12-26T01:38:56.909Z,9.34
2022-12-26T01:42:01.934Z,9.49
2022-12-26T01:45:08.530Z,9.49
2022-12-26T01:48:18.390Z,9.37
2022-12-26T01:51:26.270Z,9.16
2022-12-26T01:54:41.209Z,9.22
2022-12-26T01:57:52.021Z,9.46
2022-12-26T02:00:56.318Z,8.95
2022-12-26T02:04:20.484Z,9.00
2022-12-26T02:07:25.868Z,9.27
2022-12-26T02:10:33.500Z,9.36
2022-12-26T02:13:40.169Z,9.45
2022-12-26T02:16:44.888Z,9.14
2022-12-26T02:19:59.404Z,9.24
2022-12-26T02:23:35.715Z,9.30
2022-12-26T02:27:12.199Z,9.21
2022-12-26T02:30:43.792Z,9.21
2022-12-26T02:34:02.877Z,9.07
2022-12-26T02:37:23.003Z,9.04
2022-12-26T02:40:43.203Z,9.23
2022-12-26T02:43:58.516Z,9.15
2022-12-26T02:47:12.029Z,9.16
2022-12-26T02:50:39.038Z,9.08
2022-12-26T02:54:12.476Z,9.01
2022-12-26T02:57:38.695Z,9.10
2022-12-26T03:01:03.217Z,9.05
2022-12-26T03:04:31.696Z,9.22
2022-12-26T03:07:57.104Z,9.27
2022-12-26T03:11:18.098Z,8.97
2022-12-26T03:14:27.387Z,8.78
2022-12-26T03:17:34.179Z,8.58
2022-12-26T03:20:40.409Z,8.56
2022-12-26T03:23:47.347Z,8.36
2022-12-26T03:26:54.438Z,8.37
2022-12-26T03:30:12.118Z,8.50
2022-12-26T03:33:29.431Z,8.64
2022-12-26T03:36:43.485Z,8.60
2022-12-26T03:40:14.559Z,8.88
2022-12-26T03:43:47.381Z,8.99
2022-12-26T03:47:24.215Z,8.73
2022-12-26T03:50:54.845Z,8.60
2022-12-26T03:54:28.441Z,8.49
2022-12-26T03:57:56.272Z,8.40
2022-12-26T04:01:21.684Z,8.24
2022-12-26T04:04:42.712Z,8.13
2022-12-26T04:08:12.199Z,8.05
2022-12-26T04:11:39.484Z,8.06
2022-12-26T04:15:07.017Z,7.93
2022-12-26T04:18:32.304Z,7.72
2022-12-26T04:21:59.345Z,7.93
2022-12-26T04:25:50.456Z,7.88
2022-12-26T04:29:11.749Z,7.93
2022-12-26T04:32:39.009Z,7.78
2022-12-26T04:36:06.699Z,7.44
2022-12-26T04:39:32.441Z,7.47
2022-12-26T04:42:54.556Z,7.73
2022-12-26T04:45:59.946Z,7.52
2022-12-26T04:49:24.249Z,7.67
2022-12-26T04:52:48.733Z,8.05
2022-12-26T04:55:52.215Z,8.01
2022-12-26T04:58:55.968Z,8.04
2022-12-26T05:02:18.385Z,7.95
2022-12-26T05:05:48.550Z,7.87
2022-12-26T05:09:09.970Z,8.01
2022-12-26T05:12:15.058Z,7.73
2022-12-26T05:15:19.381Z,8.01
2022-12-26T05:18:42.103Z,7.53
2022-12-26T05:22:02.976Z,7.69
2022-12-26T05:25:31.978Z,7.36
2022-12-26T05:28:44.885Z,7.44
2022-12-26T05:31:48.655Z,7.56
2022-12-26T05:34:52.660Z,7.66
2022-12-26T05:37:56.800Z,7.34
2022-12-26T05:41:00.419Z,7.54
2022-12-26T05:44:04.160Z,7.69
2022-12-26T05:47:08.971Z,7.58
2022-12-26T05:50:14.377Z,7.87
2022-12-26T05:53:18.069Z,7.84
2022-12-26T05:56:22.543Z,7.81
2022-12-26T05:59:26.214Z,7.96
2022-12-26T06:02:31.350Z,7.70
2022-12-26T06:05:36.981Z,7.73
2022-12-26T06:08:41.045Z,7.55
2022-12-26T06:11:49.026Z,7.89
2022-12-26T06:14:53.076Z,7.53
2022-12-26T06:17:57.254Z,7.82
2022-12-26T06:21:05.439Z,8.05
2022-12-26T06:24:09.436Z,8.10
2022-12-26T06:27:13.406Z,8.60
2022-12-26T06:30:18.915Z,8.98
2022-12-26T06:33:23.085Z,9.44
2022-12-26T06:36:30.336Z,9.41
2022-12-26T06:39:34.835Z,9.58
2022-12-26T06:42:38.927Z,9.78
2022-12-26T06:45:43.083Z,9.51
2022-12-26T06:48:47.522Z,9.19
2022-12-26T06:51:53.400Z,8.86
2022-12-26T06:54:58.971Z,8.49
2022-12-26T06:58:03.038Z,8.03
2022-12-26T07:01:08.085Z,8.12
2022-12-26T07:04:14.649Z,8.29
2022-12-26T07:07:20.141Z,8.61
2022-12-26T07:10:24.132Z,8.41
2022-12-26T07:13:27.884Z,8.43
2022-12-26T07:16:32.239Z,8.59
2022-12-26T07:19:36.605Z,8.26
2022-12-26T07:22:42.526Z,8.64
2022-12-26T07:25:49.059Z,9.29
2022-12-26T07:28:56.405Z,9.90
2022-12-26T07:32:00.593Z,10.35
2022-12-26T07:35:04.976Z,10.61
2022-12-26T07:38:10.766Z,10.74
2022-12-26T07:41:34.526Z,10.99
2022-12-26T07:44:39.659Z,11.36
2022-12-26T07:47:43.923Z,11.49
2022-12-26T07:50:49.579Z,11.65
2022-12-26T07:53:54.968Z,12.09
2022-12-26T07:57:21.723Z,12.40
2022-12-26T08:00:23.283Z,12.88
2022-12-26T08:03:27.455Z,13.07
2022-12-26T08:06:31.474Z,13.04
2022-12-26T08:09:38.558Z,13.19
2022-12-26T08:12:42.734Z,13.43
2022-12-26T08:15:47.004Z,13.50
2022-12-26T08:18:51.157Z,13.79
2022-12-26T08:21:55.212Z,13.82
2022-12-26T08:25:00.799Z,13.66
2022-12-26T08:28:04.842Z,13.50
2022-12-26T08:31:09.775Z,13.92
2022-12-26T08:34:15.168Z,13.88
2022-12-26T08:37:19.281Z,14.06
2022-12-26T08:40:42.128Z,14.46
2022-12-26T08:44:25.669Z,14.51
2022-12-26T08:47:15.253Z,14.78
2022-12-26T08:50:19.678Z,14.86
2022-12-26T08:53:23.759Z,15.18
2022-12-26T08:56:30.344Z,15.03
2022-12-26T08:59:34.495Z,15.26
2022-12-26T09:02:38.911Z,15.03
2022-12-26T09:05:43.437Z,15.07
2022-12-26T09:08:47.524Z,15.12
2022-12-26T09:11:53.324Z,15.44
2022-12-26T09:14:57.444Z,15.52
2022-12-26T09:18:01.521Z,15.79
2022-12-26T09:21:07.434Z,15.48
2022-12-26T09:24:14.483Z,16.08
2022-12-26T09:27:20.043Z,15.98
2022-12-26T09:30:25.004Z,16.13
2022-12-26T09:33:31.769Z,16.18
2022-12-26T09:36:39.753Z,16.44
2022-12-26T09:39:43.884Z,16.19
2022-12-26T09:42:59.638Z,16.40
2022-12-26T09:46:12.716Z,16.62
2022-12-26T09:49:22.085Z,16.41
2022-12-26T09:52:36.604Z,16.26
2022-12-26T09:55:46.641Z,16.02
2022-12-26T09:58:55.437Z,16.40
2022-12-26T10:02:00.578Z,16.22
2022-12-26T10:05:04.767Z,16.53
2022-12-26T10:08:24.045Z,16.79
2022-12-26T10:11:40.478Z,16.75
2022-12-26T10:14:56.718Z,16.64
2022-12-26T10:18:10.517Z,16.86
2022-12-26T10:21:28.323Z,16.94
2022-12-26T10:24:35.964Z,17.45
2022-12-26T10:27:42.798Z,17.28
2022-12-26T10:30:50.562Z,17.27
2022-12-26T10:34:00.318Z,17.08
2022-12-26T10:37:12.167Z,17.24
2022-12-26T10:40:21.925Z,17.69
2022-12-26T10:43:30.202Z,17.44
2022-12-26T10:46:52.756Z,17.66
2022-12-26T10:50:00.121Z,17.71
2022-12-26T10:53:08.454Z,17.70
2022-12-26T10:56:16.533Z,17.96
2022-12-26T10:59:24.753Z,17.97
2022-12-26T11:02:32.386Z,17.82
2022-12-26T11:06:06.407Z,17.46
2022-12-26T11:09:03.324Z,17.38
2022-12-26T11:12:08.325Z,17.45
2022-12-26T11:15:23.664Z,17.44
2022-12-26T11:18:35.845Z,17.56
2022-12-26T11:21:39.966Z,17.64
2022-12-26T11:24:44.128Z,17.35
2022-12-26T11:27:51.329Z,17.45
2022-12-26T11:30:55.282Z,17.74
2022-12-26T11:34:02.137Z,17.69
2022-12-26T11:37:07.899Z,17.66
2022-12-26T11:40:19.296Z,17.10
2022-12-26T11:43:23.682Z,16.70
2022-12-26T11:46:36.862Z,17.15
2022-12-26T11:49:52.431Z,17.21
2022-12-26T11:53:07.604Z,17.40
2022-12-26T11:56:11.962Z,17.44
2022-12-26T11:59:24.879Z,17.33
2022-12-26T12:02:32.336Z,17.22
2022-12-26T12:05:47.719Z,17.30
2022-12-26T12:09:05.718Z,17.47
2022-12-26T12:12:20.130Z,17.29
2022-12-26T12:15:32.369Z,17.27
2022-12-26T12:18:49.608Z,17.30
2022-12-26T12:22:12.279Z,17.17
2022-12-26T12:25:32.437Z,17.31
2022-12-26T12:29:17.880Z,17.14
2022-12-26T12:32:30.571Z,17.12
2022-12-26T12:35:47.850Z,17.04
2022-12-26T12:39:03.805Z,17.08
2022-12-26T12:42:20.212Z,16.99
2022-12-26T12:45:28.979Z,16.99
2022-12-26T12:48:46.720Z,16.95
2022-12-26T12:51:59.678Z,16.79
2022-12-26T12:55:33.159Z,16.82
2022-12-26T12:58:45.713Z,16.72
2022-12-26T13:01:55.587Z,16.60
2022-12-26T13:05:08.132Z,16.57
2022-12-26T13:08:17.135Z,16.71
2022-12-26T13:11:29.414Z,16.40
2022-12-26T13:14:37.125Z,16.05
2022-12-26T13:17:49.969Z,16.00
2022-12-26T13:20:57.561Z,15.93
2022-12-26T13:24:24.079Z,15.65
2022-12-26T13:27:33.245Z,15.89
2022-12-26T13:30:37.611Z,15.71
2022-12-26T13:33:44.283Z,15.77
2022-12-26T13:36:50.444Z,15.86
2022-12-26T13:39:55.049Z,15.60
2022-12-26T13:43:22.334Z,15.72
2022-12-26T13:46:55.051Z,15.65
2022-12-26T13:49:59.370Z,15.79
2022-12-26T13:53:03.756Z,15.77
2022-12-26T13:56:45.572Z,15.72
2022-12-26T14:00:07.044Z,15.55
2022-12-26T14:03:52.861Z,15.25
2022-12-26T14:07:13.732Z,15.16
2022-12-26T14:10:24.240Z,15.00
2022-12-26T14:13:49.118Z,14.88
2022-12-26T14:17:02.160Z,14.78
2022-12-26T14:20:20.121Z,14.63
2022-12-26T14:23:46.016Z,14.40
2022-12-26T14:26:57.921Z,14.34
2022-12-26T14:30:19.332Z,14.22
2022-12-26T14:33:31.082Z,14.13
2022-12-26T14:36:42.558Z,14.00
2022-12-26T14:39:56.399Z,14.08
2022-12-26T14:43:15.206Z,13.89
2022-12-26T14:46:48.730Z,13.85
2022-12-26T14:49:54.477Z,13.69
2022-12-26T14:53:31.876Z,13.59
2022-12-26T14:56:38.831Z,13.66
2022-12-26T14:59:43.024Z,13.56
2022-12-26T15:02:53.056Z,13.51
2022-12-26T15:06:06.124Z,13.50
2022-12-26T15:09:35.118Z,13.42
2022-12-26T15:13:10.606Z,13.42
2022-12-26T15:16:28.435Z,13.26
2022-12-26T15:20:00.877Z,13.27
2022-12-26T15:23:40.964Z,13.17
2022-12-26T15:27:02.941Z,13.08
2022-12-26T15:30:20.805Z,13.11
2022-12-26T15:33:34.000Z,13.12
2022-12-26T15:36:47.676Z,13.02
2022-12-26T15:40:01.922Z,12.85
2022-12-26T15:43:28.175Z,12.89
2022-12-26T15:46:33.837Z,12.76
2022-12-26T15:49:52.346Z,12.68
2022-12-26T15:53:11.875Z,12.64
2022-12-26T15:56:53.918Z,12.51
2022-12-26T16:00:13.132Z,12.45
2022-12-26T16:03:32.352Z,12.42
2022-12-26T16:06:51.230Z,12.34
2022-12-26T16:09:56.941Z,12.32
2022-12-26T16:13:07.795Z,12.23
2022-12-26T16:16:12.161Z,12.31
2022-12-26T16:19:18.065Z,12.28
2022-12-26T16:22:46.948Z,12.19
2022-12-26T16:25:52.288Z,12.06
2022-12-26T16:28:59.871Z,12.00
2022-12-26T16:32:06.433Z,11.98
2022-12-26T16:35:20.038Z,11.91
2022-12-26T16:38:32.125Z,11.83
2022-12-26T16:41:39.556Z,11.94
2022-12-26T16:44:45.971Z,11.94
2022-12-26T16:47:50.287Z,11.84
2022-12-26T16:50:55.677Z,11.86
2022-12-26T16:54:17.740Z,11.92
2022-12-26T16:57:22.894Z,11.89
2022-12-26T17:00:28.793Z,11.77
2022-12-26T17:03:39.892Z,11.73
2022-12-26T17:06:51.403Z,11.64
2022-12-26T17:09:59.421Z,11.61
2022-12-26T17:13:06.371Z,11.50
2022-12-26T17:16:12.157Z,11.52
2022-12-26T17:19:20.313Z,11.60
2022-12-26T17:22:31.133Z,11.56
2022-12-26T17:25:35.166Z,11.63
2022-12-26T17:28:39.382Z,11.66
2022-12-26T17:31:46.228Z,11.64
2022-12-26T17:34:50.380Z,11.55
2022-12-26T17:37:58.319Z,11.33
2022-12-26T17:41:05.547Z,11.35
2022-12-26T17:44:34.950Z,11.33
2022-12-26T17:47:40.440Z,11.20
2022-12-26T17:50:46.494Z,11.29
2022-12-26T17:53:52.456Z,11.49
2022-12-26T17:56:56.115Z,11.50
2022-12-26T18:00:00.106Z,11.41
2022-12-26T18:03:05.731Z,11.44
2022-12-26T18:06:12.016Z,11.45
2022-12-26T18:09:26.052Z,11.23
2022-12-26T18:12:30.270Z,11.08
2022-12-26T18:15:34.126Z,11.30
2022-12-26T18:18:41.344Z,11.20
2022-12-26T18:21:45.749Z,11.28
2022-12-26T18:24:49.595Z,11.08
2022-12-26T18:27:53.883Z,10.92
2022-12-26T18:30:58.405Z,10.96
2022-12-26T18:34:03.805Z,10.94
2022-12-26T18:37:07.565Z,10.90
2022-12-26T18:40:26.135Z,10.95
2022-12-26T18:43:29.903Z,10.77
2022-12-26T18:46:33.646Z,10.73
2022-12-26T18:49:39.077Z,10.42
2022-12-26T18:52:43.012Z,10.37
2022-12-26T18:55:46.865Z,10.52
2022-12-26T18:58:57.720Z,10.29
2022-12-26T19:02:02.615Z,10.46
2022-12-26T19:05:08.412Z,10.46
2022-12-26T19:08:13.036Z,10.60
2022-12-26T19:11:17.427Z,10.67
2022-12-26T19:14:23.158Z,10.50
2022-12-26T19:17:27.024Z,10.58
2022-12-26T19:20:32.221Z,10.55
2022-12-26T19:23:35.985Z,10.52
2022-12-26T19:26:39.723Z,10.63
2022-12-26T19:29:43.400Z,10.52
2022-12-26T19:32:47.903Z,10.60
2022-12-26T19:35:58.150Z,10.68
2022-12-26T19:39:01.896Z,10.46
2022-12-26T19:42:05.793Z,10.53
2022-12-26T19:45:12.151Z,10.05
2022-12-26T19:48:15.925Z,10.16
2022-12-26T19:51:22.585Z,9.70
2022-12-26T19:54:26.498Z,10.02
2022-12-26T19:57:30.190Z,9.67
2022-12-26T20:00:33.919Z,9.74
2022-12-26T20:03:37.969Z,9.77
2022-12-26T20:06:43.173Z,9.44
2022-12-26T20:09:46.903Z,9.66
2022-12-26T20:12:50.669Z,9.74
2022-12-26T20:15:54.440Z,9.65
2022-12-26T20:18:58.292Z,9.60
2022-12-26T20:22:03.668Z,9.44
2022-12-26T20:25:10.061Z,9.29
2022-12-26T20:28:14.113Z,9.29
2022-12-26T20:31:19.935Z,9.28
2022-12-26T20:34:24.141Z,9.21
2022-12-26T20:37:29.355Z,9.29
2022-12-26T20:40:33.052Z,9.30
2022-12-26T20:43:37.773Z,9.20
2022-12-26T20:46:42.345Z,9.04
2022-12-26T20:49:46.216Z,9.21
2022-12-26T20:52:51.645Z,9.28
2022-12-26T20:55:57.704Z,9.32
2022-12-26T20:59:01.604Z,9.44
2022-12-26T21:02:06.040Z,9.40
2022-12-26T21:05:10.572Z,9.17
2022-12-26T21:08:15.752Z,9.35
2022-12-26T21:11:21.930Z,9.37
2022-12-26T21:14:25.864Z,9.35
2022-12-26T21:17:29.543Z,9.45
2022-12-26T21:20:33.879Z,9.28
2022-12-26T21:23:39.512Z,9.29
2022-12-26T21:26:44.290Z,9.20
2022-12-26T21:29:48.187Z,9.05
2022-12-26T21:32:52.166Z,9.27
2022-12-26T21:35:56.222Z,9.31
2022-12-26T21:39:01.469Z,8.90
2022-12-26T21:42:06.494Z,9.09
2022-12-26T21:45:11.618Z,9.20
2022-12-26T21:48:16.081Z,9.27
2022-12-26T21:51:21.542Z,9.27
2022-12-26T21:54:48.568Z,9.30
2022-12-26T21:57:52.891Z,9.35
2022-12-26T22:00:56.722Z,9.37
2022-12-26T22:04:17.567Z,9.24
2022-12-26T22:07:21.293Z,9.28
2022-12-26T22:10:46.639Z,9.14
2022-12-26T22:13:50.165Z,9.19
2022-12-26T22:16:54.570Z,9.22
2022-12-26T22:19:58.275Z,9.30
2022-12-26T22:23:02.102Z,9.26
2022-12-26T22:26:07.992Z,9.32
2022-12-26T22:29:11.631Z,9.18
2022-12-26T22:32:15.254Z,9.08
2022-12-26T22:35:19.124Z,9.02
2022-12-26T22:38:23.804Z,9.01
2022-12-26T22:41:29.412Z,9.16
2022-12-26T22:44:33.256Z,9.26
2022-12-26T22:47:36.798Z,9.25
2022-12-26T22:50:44.322Z,9.17
2022-12-26T22:53:48.503Z,8.99
2022-12-26T22:56:53.743Z,8.98
2022-12-26T23:00:08.322Z,8.84
2022-12-26T23:03:13.262Z,8.86
2022-12-26T23:06:20.048Z,8.76
2022-12-26T23:09:24.353Z,8.92
2022-12-26T23:12:45.363Z,8.90
2022-12-26T23:15:56.268Z,8.67
2022-12-26T23:19:19.441Z,8.69
2022-12-26T23:22:23.720Z,8.58
2022-12-26T23:25:27.359Z,8.27
2022-12-26T23:28:49.756Z,8.52
2022-12-26T23:31:53.342Z,8.59
2022-12-26T23:34:56.988Z,8.67
2022-12-26T23:38:00.514Z,8.64
2022-12-26T23:41:04.192Z,8.72
2022-12-26T23:44:09.373Z,8.62
2022-12-26T23:47:13.089Z,8.29
2022-12-26T23:50:18.184Z,8.01
2022-12-26T23:53:21.739Z,7.62
2022-12-26T23:56:27.922Z,7.69
2022-12-26T23:59:32.969Z,7.81
